Time;durP1;ratioP1;P1;durP2;ratioP2;P2;SDS_P1;SDS_P2;PMS_P1;PMS_P2;Temp;Humidity;BMP_temperature;BMP_pressure;BME280_temperature;BME280_humidity;BME280_pressure;Samples;Min_cycle;Max_cycle;Signal;HPM_P1;HPM_P2
2023/10/21 00:01:48;;;;;;;0.73;0.52;;;;;;;13.51;100.00;95620.84;4101218;28;20211;-45
2023/10/21 00:03:49;;;;;;;0.50;0.50;;;;;;;13.52;100.00;95622.47;4115515;28;20261;-44
2023/10/21 00:05:51;;;;;;;0.40;0.40;;;;;;;13.45;100.00;95621.41;4117318;28;20256;-45
2023/10/21 00:07:53;;;;;;;0.38;0.38;;;;;;;13.36;100.00;95621.47;4115553;28;20213;-44
2023/10/21 00:09:55;;;;;;;0.32;0.32;;;;;;;13.38;100.00;95632.91;4117223;28;20206;-47
2023/10/21 00:11:57;;;;;;;0.32;0.32;;;;;;;13.36;100.00;95629.72;4120127;28;20281;-44
2023/10/21 00:13:58;;;;;;;0.32;0.32;;;;;;;13.33;100.00;95630.41;4138086;28;20226;-44
2023/10/21 00:16:00;;;;;;;0.50;0.50;;;;;;;13.39;100.00;95633.75;4103285;28;20215;-45
2023/10/21 00:18:02;;;;;;;0.47;0.47;;;;;;;13.39;100.00;95633.75;4134174;28;20248;-44
2023/10/21 00:20:06;;;;;;;0.52;0.52;;;;;;;13.38;100.00;95632.13;4119761;28;20209;-45
2023/10/21 00:22:10;;;;;;;0.30;0.30;;;;;;;13.39;100.00;95628.25;4106697;28;20250;-44
2023/10/21 00:24:11;;;;;;;0.40;0.40;;;;;;;13.38;100.00;95638.41;4121003;28;20861;-44
2023/10/21 00:26:16;;;;;;;0.38;0.38;;;;;;;13.41;100.00;95643.25;4120202;28;20210;-44
2023/10/21 00:28:17;;;;;;;0.30;0.30;;;;;;;13.40;100.00;95636.16;4118516;28;20584;-44
2023/10/21 00:30:19;;;;;;;0.77;0.60;;;;;;;13.38;100.00;95646.66;4137826;28;20217;-45
2023/10/21 00:32:21;;;;;;;0.40;0.40;;;;;;;13.37;100.00;95647.81;4119393;28;20402;-45
2023/10/21 00:34:23;;;;;;;0.40;0.40;;;;;;;13.38;100.00;95649.41;4121879;28;20238;-44
2023/10/21 00:36:24;;;;;;;0.50;0.50;;;;;;;13.36;100.00;95657.19;4122229;28;20715;-44
2023/10/21 00:38:26;;;;;;;0.30;0.30;;;;;;;13.40;100.00;95673.78;4139778;28;20213;-44
2023/10/21 00:40:28;;;;;;;0.40;0.40;;;;;;;13.40;100.00;95663.63;4120529;28;20699;-44
2023/10/21 00:42:30;;;;;;;0.47;0.38;;;;;;;13.41;100.00;95684.44;4104329;28;20349;-45
2023/10/21 00:44:32;;;;;;;0.30;0.30;;;;;;;13.43;100.00;95673.91;4123510;28;20265;-44
2023/10/21 00:46:34;;;;;;;0.40;0.40;;;;;;;13.39;100.00;95678.50;4105597;28;20207;-45
2023/10/21 00:48:36;;;;;;;0.40;0.40;;;;;;;13.40;100.00;95680.09;4103493;28;20760;-44
2023/10/21 00:50:38;;;;;;;0.30;0.30;;;;;;;13.39;100.00;95681.25;4136553;28;20240;-45
2023/10/21 00:52:46;;;;;;;0.40;0.40;;;;;;;13.36;100.00;95695.63;4102412;28;20246;-45
2023/10/21 00:54:48;;;;;;;0.20;0.20;;;;;;;13.39;100.00;95705.16;4118674;28;20654;-45
2023/10/21 00:56:50;;;;;;;0.40;0.40;;;;;;;13.37;100.00;95705.47;4120509;28;20307;-44
2023/10/21 00:58:51;;;;;;;0.35;0.35;;;;;;;13.41;100.00;95709.16;4120749;28;20261;-44
2023/10/21 01:00:57;;;;;;;0.50;0.50;;;;;;;13.39;100.00;95716.94;4134569;28;20610;-44
2023/10/21 01:02:59;;;;;;;0.30;0.30;;;;;;;13.40;100.00;95723.22;4101114;28;20262;-44
2023/10/21 01:05:01;;;;;;;0.38;0.38;;;;;;;13.40;100.00;95735.03;4104553;28;20210;-44
2023/10/21 01:07:02;;;;;;;0.30;0.30;;;;;;;13.43;100.00;95731.59;4115810;28;20245;-44
2023/10/21 01:09:05;;;;;;;0.30;0.30;;;;;;;13.45;100.00;95748.56;4120483;28;20664;-45
2023/10/21 01:11:08;;;;;;;0.32;0.32;;;;;;;13.46;100.00;95750.19;4106591;28;20247;-45
2023/10/21 01:13:10;;;;;;;0.40;0.40;;;;;;;13.46;100.00;95766.66;4107340;28;20752;-45
2023/10/21 01:15:12;;;;;;;0.30;0.30;;;;;;;13.44;100.00;95768.91;4123114;28;20218;-45
2023/10/21 01:17:14;;;;;;;0.30;0.30;;;;;;;13.44;100.00;95752.44;4122673;28;20253;-45
2023/10/21 01:19:15;;;;;;;0.52;0.52;;;;;;;13.41;100.00;95791.56;4107122;28;20642;-45
2023/10/21 01:21:17;;;;;;;0.30;0.30;;;;;;;13.38;100.00;95796.94;4105640;28;20215;-46
2023/10/21 01:23:19;;;;;;;0.40;0.40;;;;;;;13.37;100.00;95798.84;4104420;28;20357;-44
2023/10/21 01:25:21;;;;;;;0.40;0.40;;;;;;;13.36;100.00;95816.47;4087494;28;20211;-45
2023/10/21 01:27:23;;;;;;;0.38;0.38;;;;;;;13.38;100.00;95814.19;4101205;28;20278;-46
2023/10/21 01:29:25;;;;;;;0.30;0.30;;;;;;;13.36;100.00;95816.47;4104898;28;20583;-45
2023/10/21 01:31:26;;;;;;;0.40;0.40;;;;;;;13.38;100.00;95825.19;4119610;28;20280;-44
2023/10/21 01:33:28;;;;;;;2.45;0.55;;;;;;;13.37;100.00;95837.31;4136145;28;20225;-45
2023/10/21 01:35:30;;;;;;;0.40;0.40;;;;;;;13.37;100.00;95844.75;4119535;28;20206;-44
2023/10/21 01:37:32;;;;;;;0.50;0.50;;;;;;;13.34;100.00;95857.22;4100253;28;20233;-45
2023/10/21 01:39:34;;;;;;;0.30;0.30;;;;;;;13.35;100.00;95850.56;4105582;28;20221;-45
2023/10/21 01:41:39;;;;;;;0.40;0.40;;;;;;;13.35;100.00;95869.81;4118882;28;20206;-45
2023/10/21 01:43:41;;;;;;;0.40;0.40;;;;;;;13.38;100.00;95891.09;4138069;28;20758;-44
2023/10/21 01:45:42;;;;;;;0.40;0.40;;;;;;;13.36;100.00;95887.88;4119870;28;20269;-45
2023/10/21 01:47:44;;;;;;;0.47;0.47;;;;;;;13.32;100.00;95889.69;4117720;28;20217;-45
2023/10/21 01:49:46;;;;;;;0.32;0.32;;;;;;;13.29;100.00;95915.06;4119237;28;20230;-45
2023/10/21 01:51:48;;;;;;;0.60;0.60;;;;;;;13.29;100.00;95898.59;4119382;28;20276;-45
2023/10/21 01:53:50;;;;;;;0.20;0.20;;;;;;;13.28;100.00;95907.97;4119046;28;20832;-45
2023/10/21 01:56:03;;;;;;;2.10;1.00;;;;;;;13.21;100.00;95929.66;4121187;28;20649;-45
2023/10/21 01:58:04;;;;;;;0.40;0.40;;;;;;;13.23;100.00;95916.38;4134346;28;20292;-45
2023/10/21 02:00:10;;;;;;;0.30;0.30;;;;;;;13.26;100.00;95926.72;4120863;28;20214;-44
2023/10/21 02:02:12;;;;;;;3.83;0.50;;;;;;;13.24;100.00;95939.16;4117094;28;20650;-44
2023/10/21 02:04:14;;;;;;;0.60;0.60;;;;;;;13.18;100.00;95935.00;4118612;28;20375;-44
2023/10/21 02:06:16;;;;;;;0.40;0.40;;;;;;;13.15;100.00;95941.13;4135825;28;20213;-45
2023/10/21 02:08:18;;;;;;;0.35;0.35;;;;;;;13.18;100.00;95949.50;4104687;28;20585;-45
2023/10/21 02:10:20;;;;;;;0.55;0.52;;;;;;;13.16;100.00;95960.03;4103029;28;20210;-44
2023/10/21 02:12:22;;;;;;;0.60;0.60;;;;;;;13.18;100.00;95951.47;4120988;28;20360;-45
2023/10/21 02:14:24;;;;;;;0.43;0.43;;;;;;;13.20;100.00;95962.91;4104107;28;20312;-45
2023/10/21 02:16:26;;;;;;;0.63;0.63;;;;;;;13.24;100.00;95977.63;4103406;28;20247;-45
2023/10/21 02:18:28;;;;;;;0.50;0.50;;;;;;;13.19;100.00;95981.34;4102114;28;20748;-44
2023/10/21 02:20:29;;;;;;;0.40;0.40;;;;;;;13.22;100.00;95980.69;4119255;28;20228;-45
2023/10/21 02:22:31;;;;;;;0.57;0.52;;;;;;;13.25;100.00;95988.25;4116689;28;20238;-45
2023/10/21 02:24:35;;;;;;;0.30;0.30;;;;;;;13.20;100.00;95998.63;4122281;28;20230;-45
2023/10/21 02:26:37;;;;;;;0.73;0.73;;;;;;;13.21;100.00;96012.03;4107014;28;20260;-45
2023/10/21 02:28:42;;;;;;;0.35;0.35;;;;;;;13.21;100.00;96005.72;4102129;28;20210;-45
2023/10/21 02:30:44;;;;;;;0.40;0.40;;;;;;;13.20;100.00;96023.31;4123105;28;20306;-45
2023/10/21 02:32:47;;;;;;;0.40;0.40;;;;;;;13.23;100.00;96020.72;4121618;28;20286;-44
2023/10/21 02:34:53;;;;;;;0.40;0.40;;;;;;;13.14;100.00;96027.38;4115511;28;20669;-45
2023/10/21 02:36:55;;;;;;;0.43;0.43;;;;;;;13.16;100.00;96023.19;4116701;28;20210;-45
2023/10/21 02:38:57;;;;;;;0.40;0.40;;;;;;;13.19;100.00;96044.50;4102366;28;20206;-45
2023/10/21 02:40:58;;;;;;;0.52;0.52;;;;;;;13.16;100.00;96047.88;4105368;28;20616;-45
2023/10/21 02:43:00;;;;;;;0.50;0.50;;;;;;;13.14;100.00;96052.91;4134984;28;20197;-44
2023/10/21 02:45:02;;;;;;;0.50;0.50;;;;;;;13.14;100.00;96050.16;4118551;28;20842;-44
2023/10/21 02:47:04;;;;;;;0.57;0.57;;;;;;;13.19;100.00;96055.50;4135755;28;20213;-45
2023/10/21 02:49:06;;;;;;;0.32;0.32;;;;;;;13.15;100.00;96051.78;4136302;28;20743;-45
2023/10/21 02:51:15;;;;;;;0.43;0.43;;;;;;;13.15;100.00;96065.50;4102597;28;20215;-45
2023/10/21 02:53:17;;;;;;;0.40;0.40;;;;;;;13.19;100.00;96076.63;4102640;28;20229;-45
2023/10/21 02:55:18;;;;;;;0.40;0.40;;;;;;;13.18;100.00;96078.56;4135466;28;20703;-45
2023/10/21 02:57:20;;;;;;;0.35;0.35;;;;;;;13.24;100.00;96082.75;4133603;28;20201;-45
2023/10/21 02:59:22;;;;;;;0.77;0.52;;;;;;;13.26;100.00;96086.00;4116412;28;20206;-45
2023/10/21 03:01:25;;;;;;;0.60;0.60;;;;;;;13.19;100.00;96096.69;4100695;28;20898;-45
2023/10/21 03:03:27;;;;;;;0.50;0.50;;;;;;;13.21;100.00;96110.88;4103135;28;20274;-45
2023/10/21 03:05:29;;;;;;;0.43;0.43;;;;;;;13.25;100.00;96111.81;4134568;28;20223;-45
2023/10/21 03:07:30;;;;;;;0.50;0.50;;;;;;;13.24;100.00;96110.22;4103957;28;20242;-44
2023/10/21 03:09:32;;;;;;;0.65;0.60;;;;;;;13.24;100.00;96110.22;4103065;28;20799;-45
2023/10/21 03:11:34;;;;;;;0.35;0.35;;;;;;;13.28;100.00;96105.69;4099747;28;20290;-45
2023/10/21 03:13:37;;;;;;;0.40;0.40;;;;;;;13.26;100.00;96118.13;4103414;28;20234;-46
2023/10/21 03:15:39;;;;;;;0.50;0.50;;;;;;;13.26;100.00;96118.97;4135364;28;20742;-45
2023/10/21 03:17:41;;;;;;;0.50;0.47;;;;;;;13.22;100.00;96123.47;4131181;28;20216;-45
2023/10/21 03:19:42;;;;;;;0.50;0.50;;;;;;;13.24;100.00;96136.88;4101474;28;20408;-45
2023/10/21 03:21:45;;;;;;;0.45;0.43;;;;;;;13.25;100.00;96142.03;4101147;28;21933;-45
2023/10/21 03:23:46;;;;;;;0.50;0.50;;;;;;;13.22;100.00;96131.72;4098283;28;20596;-45
2023/10/21 03:26:01;;;;;;;5.68;0.98;;;;;;;13.27;100.00;96145.28;4118367;28;20205;-45
2023/10/21 03:28:03;;;;;;;0.68;0.60;;;;;;;13.25;100.00;96155.75;4134600;28;20205;-45
2023/10/21 03:30:07;;;;;;;0.47;0.47;;;;;;;13.23;100.00;96158.03;4100156;28;20644;-44
2023/10/21 03:32:09;;;;;;;1.65;0.50;;;;;;;13.26;100.00;96162.91;4133052;28;20255;-44
2023/10/21 03:34:12;;;;;;;1.77;0.98;;;;;;;13.28;100.00;96165.31;4114550;28;20226;-44
2023/10/21 03:36:14;;;;;;;0.60;0.60;;;;;;;13.26;100.00;96167.56;4099855;28;20219;-45
2023/10/21 03:38:16;;;;;;;0.40;0.40;;;;;;;13.25;100.00;96177.75;4099549;28;20689;-45
2023/10/21 03:40:18;;;;;;;0.55;0.55;;;;;;;13.22;100.00;96178.41;4100955;28;20720;-44
2023/10/21 03:42:21;;;;;;;0.40;0.40;;;;;;;13.24;100.00;96187.13;4098982;28;20254;-44
2023/10/21 03:44:22;;;;;;;0.45;0.45;;;;;;;13.26;100.00;96190.38;4101558;28;20296;-45
2023/10/21 03:46:24;;;;;;;1.30;1.17;;;;;;;13.28;100.00;96193.59;4119250;28;20218;-45
2023/10/21 03:48:26;;;;;;;0.65;0.65;;;;;;;13.24;100.00;96197.31;4103714;28;20853;-44
2023/10/21 03:50:29;;;;;;;0.32;0.32;;;;;;;13.22;100.00;96205.03;4121535;28;20716;-45
2023/10/21 03:52:31;;;;;;;0.45;0.45;;;;;;;13.29;100.00;96197.94;4102666;28;20219;-45
2023/10/21 03:54:33;;;;;;;0.47;0.47;;;;;;;13.28;100.00;96199.06;4103105;28;20237;-45
2023/10/21 03:56:35;;;;;;;1.30;1.27;;;;;;;13.24;100.00;96214.56;4119393;28;20755;-45
2023/10/21 03:58:37;;;;;;;0.57;0.57;;;;;;;13.25;100.00;96202.44;4104525;28;20199;-44
2023/10/21 04:00:39;;;;;;;0.38;0.38;;;;;;;13.25;100.00;96216.19;4119914;28;20217;-45
2023/10/21 04:02:41;;;;;;;0.75;0.75;;;;;;;13.26;100.00;96223.31;4106192;28;20207;-45
2023/10/21 04:04:43;;;;;;;1.60;0.90;;;;;;;13.25;100.00;96229.91;4119629;28;20229;-44
2023/10/21 04:06:45;;;;;;;0.60;0.60;;;;;;;13.24;100.00;96242.03;4121480;28;20664;-44
2023/10/21 04:08:46;;;;;;;1.13;1.13;;;;;;;13.19;100.00;96238.66;4103611;28;20641;-45
2023/10/21 04:10:48;;;;;;;0.57;0.57;;;;;;;13.27;100.00;96246.91;4121895;28;20214;-45
2023/10/21 04:12:50;;;;;;;0.40;0.40;;;;;;;13.22;100.00;96249.81;4118268;28;20206;-44
2023/10/21 04:14:52;;;;;;;0.57;0.57;;;;;;;13.24;100.00;96247.53;4108519;28;20261;-44
2023/10/21 04:16:54;;;;;;;0.40;0.40;;;;;;;13.19;100.00;96250.47;4121652;28;20206;-44
2023/10/21 04:18:55;;;;;;;0.55;0.30;;;;;;;13.20;100.00;96248.50;4135968;28;20217;-44
2023/10/21 04:20:57;;;;;;;0.40;0.40;;;;;;;13.17;100.00;96247.19;4118671;28;20211;-44
2023/10/21 04:22:59;;;;;;;0.63;0.50;;;;;;;13.18;100.00;96259.78;4118288;28;20301;-44
2023/10/21 04:25:03;;;;;;;0.40;0.40;;;;;;;13.16;100.00;96261.28;4118114;28;20206;-44
2023/10/21 04:27:04;;;;;;;0.30;0.30;;;;;;;13.20;100.00;96274.03;4104743;28;20219;-44
2023/10/21 04:29:07;;;;;;;0.68;0.68;;;;;;;13.19;100.00;96275.16;4116665;28;20206;-44
2023/10/21 04:31:08;;;;;;;0.70;0.70;;;;;;;13.24;100.00;96283.22;4121390;28;20206;-45
2023/10/21 04:33:12;;;;;;;0.50;0.50;;;;;;;13.20;100.00;96282.28;4102031;28;20235;-45
2023/10/21 04:35:14;;;;;;;0.40;0.40;;;;;;;13.19;100.00;96294.41;4103780;28;20211;-45
2023/10/21 04:37:16;;;;;;;0.40;0.40;;;;;;;13.13;100.00;96309.41;4121552;28;20210;-45
2023/10/21 04:39:17;;;;;;;0.57;0.57;;;;;;;13.15;100.00;96301.63;4116107;28;20222;-44
2023/10/21 04:41:20;;;;;;;0.40;0.40;;;;;;;13.11;100.00;96308.09;4103272;28;20210;-45
2023/10/21 04:43:22;;;;;;;0.50;0.50;;;;;;;13.06;100.00;96311.81;4118702;28;21062;-45
2023/10/21 04:45:23;;;;;;;0.43;0.43;;;;;;;13.00;100.00;96318.56;4119609;28;20210;-44
2023/10/21 04:47:25;;;;;;;0.38;0.38;;;;;;;12.98;100.00;96318.06;4119731;28;20764;-45
2023/10/21 04:49:27;;;;;;;0.50;0.50;;;;;;;12.94;100.00;96325.31;4116615;28;20242;-45
2023/10/21 04:51:29;;;;;;;0.38;0.38;;;;;;;12.98;100.00;96326.28;4103188;28;20277;-44
2023/10/21 04:53:30;;;;;;;0.40;0.40;;;;;;;12.97;100.00;96335.66;4135465;28;20232;-45
2023/10/21 04:55:32;;;;;;;0.30;0.30;;;;;;;12.96;100.00;96336.00;4103848;28;20673;-44
2023/10/21 04:57:34;;;;;;;0.43;0.43;;;;;;;12.97;100.00;96341.16;4134338;28;20783;-44
2023/10/21 04:59:38;;;;;;;0.40;0.40;;;;;;;13.02;100.00;96346.50;4135495;28;20300;-44
2023/10/21 05:01:39;;;;;;;0.40;0.40;;;;;;;12.92;100.00;96335.81;4119974;28;20214;-45
2023/10/21 05:03:42;;;;;;;0.40;0.40;;;;;;;12.94;100.00;96344.53;4134315;28;20265;-45
2023/10/21 05:05:45;;;;;;;0.50;0.50;;;;;;;12.94;100.00;96361.00;4119490;28;20679;-44
2023/10/21 05:07:47;;;;;;;0.52;0.52;;;;;;;12.92;100.00;96354.19;4118923;28;20210;-45
2023/10/21 05:09:49;;;;;;;0.32;0.32;;;;;;;12.91;100.00;96353.38;4119207;28;20207;-44
2023/10/21 05:11:51;;;;;;;0.70;0.70;;;;;;;12.96;100.00;96360.72;4104948;28;20216;-44
2023/10/21 05:13:53;;;;;;;0.50;0.50;;;;;;;12.99;100.00;96357.31;4104084;28;20729;-45
2023/10/21 05:15:54;;;;;;;0.50;0.50;;;;;;;12.94;100.00;96363.72;4119621;28;20644;-45
2023/10/21 05:17:57;;;;;;;0.40;0.40;;;;;;;12.89;100.00;96372.09;4135745;28;20214;-45
2023/10/21 05:19:59;;;;;;;0.45;0.45;;;;;;;12.91;100.00;96386.31;4119529;28;20261;-45
2023/10/21 05:22:02;;;;;;;0.60;0.60;;;;;;;12.89;100.00;96385.03;4116403;28;20597;-43
2023/10/21 05:24:04;;;;;;;0.40;0.40;;;;;;;12.85;100.00;96404.03;4122332;28;20272;-45
2023/10/21 05:26:06;;;;;;;0.43;0.43;;;;;;;12.85;100.00;96400.50;4103664;28;20663;-45
2023/10/21 05:28:08;;;;;;;0.40;0.40;;;;;;;12.84;100.00;96413.41;4101944;28;21560;-45
2023/10/21 05:30:12;;;;;;;0.40;0.40;;;;;;;12.86;100.00;96422.16;4103530;28;20207;-44
2023/10/21 05:32:17;;;;;;;0.40;0.40;;;;;;;12.88;100.00;96424.56;4103650;28;20202;-45
2023/10/21 05:34:19;;;;;;;0.50;0.50;;;;;;;12.90;100.00;96423.13;4118689;28;20661;-45
2023/10/21 05:36:21;;;;;;;0.50;0.50;;;;;;;12.83;100.00;96433.75;4135840;28;20715;-45
2023/10/21 05:38:24;;;;;;;0.38;0.38;;;;;;;12.77;100.00;96435.00;4119765;28;20202;-44
2023/10/21 05:40:26;;;;;;;0.35;0.35;;;;;;;12.78;100.00;96446.81;4116691;28;20206;-44
2023/10/21 05:42:27;;;;;;;1.08;0.60;;;;;;;12.77;100.00;96447.94;4085439;28;20661;-45
2023/10/21 05:44:29;;;;;;;0.60;0.60;;;;;;;12.75;100.00;96461.97;4102137;28;20352;-44
2023/10/21 05:46:49;;;;;;;3.50;0.70;;;;;;;12.70;100.00;96472.25;4115965;28;20786;-44
2023/10/21 05:48:50;;;;;;;0.40;0.40;;;;;;;12.60;100.00;96470.59;4103976;28;20219;-45
2023/10/21 05:50:52;;;;;;;0.40;0.40;;;;;;;12.59;100.00;96476.38;4120076;28;20285;-44
2023/10/21 05:52:54;;;;;;;0.43;0.43;;;;;;;12.57;100.00;96482.16;4118671;28;20216;-45
2023/10/21 05:54:56;;;;;;;0.52;0.52;;;;;;;12.54;100.00;96484.72;4085162;28;20327;-45
2023/10/21 05:56:58;;;;;;;0.40;0.40;;;;;;;12.49;100.00;96510.34;4101778;28;20336;-45
2023/10/21 05:59:00;;;;;;;3.13;0.73;;;;;;;12.45;100.00;96520.31;4100642;28;20348;-45
2023/10/21 06:01:08;;;;;;;0.85;0.85;;;;;;;12.50;100.00;96522.16;4101604;28;20700;-45
2023/10/21 06:03:10;;;;;;;0.45;0.45;;;;;;;12.43;100.00;96528.06;4104630;28;20230;-45
2023/10/21 06:05:14;;;;;;;0.50;0.50;;;;;;;12.47;100.00;96525.50;4134297;28;20209;-44
2023/10/21 06:07:16;;;;;;;0.30;0.30;;;;;;;12.43;100.00;96533.53;4121655;28;20206;-45
2023/10/21 06:09:18;;;;;;;0.90;0.65;;;;;;;12.44;100.00;96551.63;4104371;28;20736;-45
2023/10/21 06:11:19;;;;;;;0.38;0.38;;;;;;;12.46;100.00;96548.56;4134401;28;20205;-46
2023/10/21 06:13:21;;;;;;;0.50;0.50;;;;;;;12.51;100.00;96549.25;4133728;28;20229;-45
2023/10/21 06:15:23;;;;;;;0.40;0.40;;;;;;;12.50;100.00;96555.88;4134918;28;20224;-45
2023/10/21 06:17:25;;;;;;;0.40;0.40;;;;;;;12.51;100.00;96562.97;4116923;28;20277;-45
2023/10/21 06:19:27;;;;;;;1.73;0.75;;;;;;;12.52;100.00;96564.63;4116849;28;20245;-45
2023/10/21 06:21:29;;;;;;;0.80;0.80;;;;;;;12.52;100.00;96563.78;4114678;28;20251;-45
2023/10/21 06:23:31;;;;;;;0.70;0.70;;;;;;;12.57;100.00;96567.22;4102433;28;20737;-45
2023/10/21 06:25:33;;;;;;;0.60;0.60;;;;;;;12.55;100.00;96574.13;4136197;28;20232;-45
2023/10/21 06:27:36;;;;;;;0.90;0.70;;;;;;;12.54;100.00;96584.31;4102263;28;20777;-44
2023/10/21 06:29:38;;;;;;;0.57;0.57;;;;;;;12.57;100.00;96588.38;4104078;28;20282;-45
2023/10/21 06:31:40;;;;;;;0.35;0.35;;;;;;;12.54;100.00;96606.25;4118900;28;20745;-45
2023/10/21 06:33:42;;;;;;;0.68;0.68;;;;;;;12.57;100.00;96600.13;4131827;28;20269;-46
2023/10/21 06:35:44;;;;;;;0.45;0.45;;;;;;;12.60;100.00;96602.28;4114004;28;20290;-45
2023/10/21 06:37:48;;;;;;;0.70;0.70;;;;;;;12.61;100.00;96601.16;4116724;28;20229;-45
2023/10/21 06:39:50;;;;;;;0.55;0.55;;;;;;;12.56;100.00;96614.97;4119123;28;20210;-45
2023/10/21 06:41:52;;;;;;;0.50;0.50;;;;;;;12.54;100.00;96602.69;4104026;28;20735;-47
2023/10/21 06:43:53;;;;;;;0.60;0.60;;;;;;;12.56;100.00;96617.72;4133576;28;20218;-45
2023/10/21 06:45:55;;;;;;;1.35;0.73;;;;;;;12.53;100.00;96615.63;4104854;28;20210;-45
2023/10/21 06:47:57;;;;;;;0.63;0.63;;;;;;;12.50;100.00;96623.66;4100740;28;20214;-45
2023/10/21 06:49:59;;;;;;;0.30;0.30;;;;;;;12.49;100.00;96631.06;4134821;28;20213;-44
2023/10/21 06:52:01;;;;;;;0.60;0.60;;;;;;;12.43;100.00;96628.75;4101450;28;20308;-45
2023/10/21 06:54:05;;;;;;;0.95;0.50;;;;;;;12.40;100.00;96627.44;4102324;28;20223;-45
2023/10/21 06:56:13;;;;;;;0.77;0.77;;;;;;;12.40;100.00;96632.91;4117959;28;20803;-45
2023/10/21 06:58:15;;;;;;;0.40;0.40;;;;;;;12.44;100.00;96647.63;4118891;28;20264;-46
2023/10/21 07:00:17;;;;;;;0.50;0.50;;;;;;;12.49;100.00;96647.50;4116383;28;20853;-46
2023/10/21 07:02:19;;;;;;;0.52;0.52;;;;;;;12.55;100.00;96650.94;4118978;28;20242;-45
2023/10/21 07:04:21;;;;;;;0.52;0.52;;;;;;;12.58;100.00;96656.63;4099850;28;20230;-44
2023/10/21 07:06:23;;;;;;;3.60;1.23;;;;;;;12.56;100.00;96667.13;4131738;28;20236;-45
2023/10/21 07:08:24;;;;;;;0.98;0.60;;;;;;;12.49;100.00;96669.47;4116909;28;20672;-45
2023/10/21 07:10:30;;;;;;;0.52;0.52;;;;;;;12.51;100.00;96675.44;4100243;28;20214;-45
2023/10/21 07:12:34;;;;;;;0.57;0.57;;;;;;;12.49;100.00;96679.59;4117088;28;20296;-46
2023/10/21 07:14:36;;;;;;;0.45;0.45;;;;;;;12.49;100.00;96688.66;4099620;28;20320;-45
2023/10/21 07:16:38;;;;;;;0.80;0.80;;;;;;;12.58;100.00;96694.25;4105160;28;20221;-45
2023/10/21 07:18:40;;;;;;;7.57;0.93;;;;;;;12.55;100.00;96687.44;4134999;28;20786;-45
2023/10/21 07:20:42;;;;;;;0.50;0.50;;;;;;;12.52;100.00;96700.97;4099375;28;20302;-45
2023/10/21 07:22:44;;;;;;;1.85;0.98;;;;;;;12.49;100.00;96696.91;4103380;28;20273;-45
2023/10/21 07:24:45;;;;;;;0.50;0.50;;;;;;;12.51;100.00;96699.34;4103215;28;20235;-45
2023/10/21 07:26:47;;;;;;;0.50;0.50;;;;;;;12.47;100.00;96696.41;4115857;28;20272;-45
2023/10/21 07:28:49;;;;;;;3.85;0.73;;;;;;;12.48;100.00;96700.75;4099328;28;20225;-45
2023/10/21 07:30:52;;;;;;;0.60;0.60;;;;;;;12.48;100.00;96710.91;4131978;28;20228;-44
2023/10/21 07:32:54;;;;;;;0.60;0.60;;;;;;;12.55;100.00;96723.09;4117480;28;20637;-45
2023/10/21 07:34:56;;;;;;;0.57;0.57;;;;;;;12.59;100.00;96723.31;4116554;28;20617;-45
2023/10/21 07:36:58;;;;;;;0.95;0.93;;;;;;;12.51;100.00;96732.25;4117239;28;20277;-46
2023/10/21 07:38:59;;;;;;;0.50;0.50;;;;;;;12.51;100.00;96738.53;4100634;28;20558;-45
2023/10/21 07:41:12;;;;;;;0.60;0.60;;;;;;;12.58;100.00;96730.72;4133117;28;20209;-45
2023/10/21 07:43:16;;;;;;;0.30;0.30;;;;;;;12.60;100.00;96735.91;4099946;28;20280;-45
2023/10/21 07:45:17;;;;;;;0.80;0.80;;;;;;;12.58;100.00;96744.44;4102379;28;20222;-45
2023/10/21 07:47:20;;;;;;;0.75;0.40;;;;;;;12.57;100.00;96742.81;4116879;28;20209;-45
2023/10/21 07:49:23;;;;;;;0.63;0.50;;;;;;;12.63;100.00;96747.06;4103104;28;20207;-45
2023/10/21 07:51:28;;;;;;;0.68;0.68;;;;;;;12.61;100.00;96746.56;4103303;28;20211;-45
2023/10/21 07:53:30;;;;;;;0.40;0.40;;;;;;;12.67;100.00;96752.75;4101637;28;20779;-45
2023/10/21 07:55:32;;;;;;;0.50;0.50;;;;;;;12.71;100.00;96751.84;4134160;28;21610;-45
2023/10/21 07:57:34;;;;;;;0.93;0.60;;;;;;;12.75;100.00;96754.78;4115400;28;20652;-44
2023/10/21 07:59:36;;;;;;;1.33;0.52;;;;;;;12.75;100.00;96750.13;4115798;28;20735;-45
2023/10/21 08:01:38;;;;;;;0.63;0.63;;;;;;;12.71;100.00;96751.84;4103577;28;20215;-45
2023/10/21 08:03:40;;;;;;;0.40;0.40;;;;;;;12.73;100.00;96757.84;4100394;28;20237;-45
2023/10/21 08:05:42;;;;;;;0.47;0.47;;;;;;;12.78;100.00;96765.97;4119469;28;20293;-45
2023/10/21 08:07:44;;;;;;;0.70;0.70;;;;;;;12.81;100.00;96765.38;4104604;28;20207;-45
2023/10/21 08:09:47;;;;;;;0.40;0.40;;;;;;;12.81;100.00;96759.88;4099217;28;20698;-45
2023/10/21 08:11:49;;;;;;;0.40;0.40;;;;;;;12.75;100.00;96761.09;4105342;28;20218;-45
2023/10/21 08:13:51;;;;;;;0.70;0.63;;;;;;;12.77;100.00;96764.34;4116294;28;20627;-45
2023/10/21 08:15:53;;;;;;;0.40;0.40;;;;;;;12.85;100.00;96765.56;4117460;28;20261;-45
2023/10/21 08:17:55;;;;;;;0.57;0.57;;;;;;;12.89;100.00;96772.88;4115891;28;20248;-45
2023/10/21 08:19:57;;;;;;;0.55;0.55;;;;;;;12.92;100.00;96772.28;4133575;28;20722;-46
2023/10/21 08:22:00;;;;;;;0.50;0.50;;;;;;;12.99;100.00;96775.44;4097866;28;20693;-45
2023/10/21 08:24:03;;;;;;;0.60;0.60;;;;;;;12.93;100.00;96784.88;4116085;28;20648;-45
2023/10/21 08:26:04;;;;;;;0.30;0.30;;;;;;;13.00;100.00;96788.03;4100782;28;20207;-44
2023/10/21 08:28:08;;;;;;;0.38;0.38;;;;;;;13.03;100.00;96789.38;4117580;28;20258;-45
2023/10/21 08:30:10;;;;;;;0.30;0.30;;;;;;;13.09;100.00;96788.94;4097136;28;20227;-45
2023/10/21 08:32:12;;;;;;;1.23;0.63;;;;;;;13.12;100.00;96791.09;4105721;28;20215;-45
2023/10/21 08:34:14;;;;;;;0.70;0.70;;;;;;;13.15;100.00;96786.88;4103905;28;20314;-46
2023/10/21 08:36:19;;;;;;;0.95;0.90;;;;;;;13.12;100.00;96798.50;4103179;28;20301;-46
2023/10/21 08:38:21;;;;;;;0.88;0.75;;;;;;;13.08;100.00;96801.03;4135933;28;20664;-44
2023/10/21 08:40:25;;;;;;;1.30;0.90;;;;;;;13.12;100.00;96806.72;4103770;28;20891;-45
2023/10/21 08:42:27;;;;;;;3.65;1.98;;;;;;;13.02;100.00;96805.00;4135160;28;20201;-45
2023/10/21 08:44:49;;;;;;;0.85;0.55;;;;;;;13.04;100.00;96818.44;4131130;28;20257;-44
2023/10/21 08:46:53;;;;;;;1.38;1.30;;;;;;;13.08;100.00;96824.94;4101305;28;20211;-45
2023/10/21 08:48:55;;;;;;;1.00;0.63;;;;;;;13.03;100.00;96823.13;4100956;28;20253;-45
2023/10/21 08:50:57;;;;;;;0.98;0.90;;;;;;;13.01;100.00;96833.59;4121237;28;20202;-45
2023/10/21 08:53:00;;;;;;;1.27;1.17;;;;;;;13.02;100.00;96821.50;4134594;28;20652;-45
2023/10/21 08:55:05;;;;;;;1.08;1.08;;;;;;;13.02;100.00;96837.97;4087323;28;20281;-45
2023/10/21 08:57:07;;;;;;;1.60;1.05;;;;;;;13.02;100.00;96832.47;4136027;28;20210;-45
2023/10/21 08:59:09;;;;;;;1.02;0.70;;;;;;;13.03;100.00;96839.59;4117272;28;20210;-45
2023/10/21 09:01:14;;;;;;;1.17;0.82;;;;;;;13.07;100.00;96846.09;4119585;28;20214;-44
2023/10/21 09:03:16;;;;;;;1.10;1.00;;;;;;;13.06;100.00;96852.72;4117215;28;20232;-45
2023/10/21 09:05:21;;;;;;;0.52;0.50;;;;;;;13.15;100.00;96848.13;4116241;28;20738;-47
2023/10/21 09:07:23;;;;;;;0.75;0.75;;;;;;;13.07;100.00;96853.50;4119425;28;20254;-46
2023/10/21 09:09:26;;;;;;;1.17;0.80;;;;;;;13.16;100.00;96860.72;4135918;28;20300;-45
2023/10/21 09:11:30;;;;;;;7.10;0.93;;;;;;;13.19;100.00;96865.63;4135072;28;20324;-45
2023/10/21 09:13:32;;;;;;;21.45;2.97;;;;;;;13.24;100.00;96873.75;4105253;28;20317;-45
2023/10/21 09:15:36;;;;;;;1.17;0.73;;;;;;;13.27;100.00;96867.66;4100709;28;20227;-45
2023/10/21 09:17:40;;;;;;;0.77;0.60;;;;;;;13.26;100.00;96863.28;4117535;28;20222;-45
2023/10/21 09:19:42;;;;;;;0.60;0.60;;;;;;;13.34;100.00;96868.03;4136064;28;20695;-45
2023/10/21 09:21:45;;;;;;;0.68;0.68;;;;;;;13.29;100.00;96865.41;4131192;28;20838;-45
2023/10/21 09:23:52;;;;;;;0.50;0.50;;;;;;;13.35;100.00;96874.34;4100007;28;20278;-45
2023/10/21 09:25:54;;;;;;;2.92;0.90;;;;;;;13.37;100.00;96867.41;4101965;28;20634;-46
2023/10/21 09:27:56;;;;;;;0.30;0.30;;;;;;;13.42;100.00;96875.56;4118181;28;20269;-46
2023/10/21 09:29:57;;;;;;;2.78;0.65;;;;;;;13.42;100.00;96870.06;4101602;28;20303;-47